Toca, Louisiana
Current Conditions -  °F | °C
As of 6:55 PM on Tuesday 21 Oct 2014 (Local Time) from KNBG Reporting Station
Clear Clear  
Wind Chill: 65°   Ceiling: Unl
Heat Index: 65°   Visibility: 10mi
Dew Point: 57°   Wind: 3mph
Humidity: 75%   Direction: 130°SE
Pressure: 29.97"   Gusts: NA
Location:  29.8369°N, 89.7702°W
Report Text: KNBG 212355Z 13003KT 10SM CLR 18/14 A2997 RMK AO2 SLP149 T01830139 10267 20183 55001 $
Loading
Personal Weather Stations






























Interactive Weather Map
Tropical Storm Tracking
New forecast layout! Learn more

10-Day Weather Forecast

Advertisements
Track Severe Weather on mobile